createdAt,value
2022-10-20T00:00:26.469Z,13.00
2022-10-20T00:02:54.045Z,12.90
2022-10-20T00:05:21.879Z,12.80
2022-10-20T00:07:49.413Z,12.80
2022-10-20T00:10:17.727Z,12.70
2022-10-20T00:12:46.502Z,12.70
2022-10-20T00:15:14.059Z,12.70
2022-10-20T00:17:41.591Z,12.70
2022-10-20T00:20:10.074Z,12.70
2022-10-20T00:22:37.778Z,12.60
2022-10-20T00:25:05.152Z,12.70
2022-10-20T00:27:33.700Z,12.70
2022-10-20T00:30:01.263Z,12.70
2022-10-20T00:32:28.799Z,12.70
2022-10-20T00:34:56.382Z,12.60
2022-10-20T00:37:23.926Z,12.60
2022-10-20T00:39:51.472Z,12.60
2022-10-20T00:42:19.370Z,12.60
2022-10-20T00:44:52.450Z,12.60
2022-10-20T00:47:23.095Z,12.60
2022-10-20T00:49:50.668Z,12.80
2022-10-20T00:52:18.213Z,12.80
2022-10-20T00:54:45.739Z,12.70
2022-10-20T00:57:13.293Z,12.70
2022-10-20T00:59:40.827Z,12.60
2022-10-20T01:02:08.402Z,12.60
2022-10-20T01:04:35.928Z,12.60
2022-10-20T01:07:03.461Z,12.60
2022-10-20T01:09:31.045Z,12.80
2022-10-20T01:12:13.654Z,13.10
2022-10-20T01:15:02.476Z,13.00
2022-10-20T01:17:39.080Z,12.90
2022-10-20T01:20:37.177Z,13.20
2022-10-20T01:23:22.632Z,13.30
2022-10-20T01:26:17.331Z,13.40
2022-10-20T01:29:06.490Z,13.50
2022-10-20T01:31:39.606Z,13.30
2022-10-20T01:34:16.239Z,13.10
2022-10-20T01:36:52.527Z,12.90
2022-10-20T01:39:20.082Z,12.80
2022-10-20T01:41:50.530Z,12.70
2022-10-20T01:44:18.085Z,12.80
2022-10-20T01:46:45.649Z,13.10
2022-10-20T01:49:13.190Z,13.00
2022-10-20T01:54:08.304Z,12.80
2022-10-20T01:56:47.969Z,12.60
2022-10-20T01:59:21.226Z,12.50
2022-10-20T02:01:51.505Z,12.70
2022-10-20T02:04:18.998Z,12.60
2022-10-20T02:06:46.581Z,12.50
2022-10-20T02:09:14.113Z,12.40
2022-10-20T02:11:53.591Z,12.40
2022-10-20T02:14:21.115Z,12.30
2022-10-20T02:17:00.632Z,12.30
2022-10-20T02:19:28.159Z,12.50
2022-10-20T02:21:56.482Z,12.50
2022-10-20T02:24:24.042Z,12.50
2022-10-20T02:26:51.572Z,12.40
2022-10-20T02:29:19.882Z,12.40
2022-10-20T02:31:47.702Z,12.40
2022-10-20T02:34:16.004Z,12.40
2022-10-20T02:36:43.540Z,12.30
2022-10-20T02:39:11.871Z,12.30
2022-10-20T02:41:39.416Z,12.30
2022-10-20T02:44:06.952Z,12.30
2022-10-20T02:46:35.283Z,12.20
2022-10-20T02:49:02.820Z,12.20
2022-10-20T02:51:30.333Z,12.10
2022-10-20T02:53:58.665Z,12.30
2022-10-20T02:56:28.866Z,12.30
2022-10-20T02:58:53.765Z,12.30
2022-10-20T03:01:21.410Z,12.20
2022-10-20T03:03:48.883Z,12.20
2022-10-20T03:06:16.407Z,12.10
2022-10-20T03:08:44.809Z,12.10
2022-10-20T03:11:12.275Z,12.10
2022-10-20T03:13:39.821Z,12.10
2022-10-20T03:16:07.374Z,12.10
2022-10-20T03:18:34.918Z,12.00
2022-10-20T03:21:03.221Z,12.00
2022-10-20T03:23:31.091Z,11.90
2022-10-20T03:26:01.599Z,11.90
2022-10-20T03:28:30.769Z,11.90
2022-10-20T03:30:56.738Z,11.80
2022-10-20T03:33:24.283Z,11.80
2022-10-20T03:35:51.807Z,11.80
2022-10-20T03:38:19.361Z,11.70
2022-10-20T03:40:46.917Z,11.70
2022-10-20T03:43:14.462Z,11.70
2022-10-20T03:45:42.055Z,11.60
2022-10-20T03:48:10.390Z,11.80
2022-10-20T03:50:40.599Z,11.80
2022-10-20T03:53:08.174Z,11.80
2022-10-20T03:55:35.709Z,11.70
2022-10-20T03:58:03.254Z,11.90
2022-10-20T04:00:30.837Z,11.90
2022-10-20T04:02:58.372Z,11.80
2022-10-20T04:05:25.907Z,11.70
2022-10-20T04:07:54.269Z,11.60
2022-10-20T04:10:21.824Z,11.60
2022-10-20T04:12:49.376Z,11.60
2022-10-20T04:15:16.961Z,11.80
2022-10-20T04:17:44.499Z,11.80
2022-10-20T04:20:12.031Z,11.80
2022-10-20T04:22:39.691Z,11.70
2022-10-20T04:25:07.160Z,11.60
2022-10-20T04:27:34.869Z,11.60
2022-10-20T04:30:02.287Z,11.50
2022-10-20T04:32:29.783Z,11.50
2022-10-20T04:34:58.086Z,11.50
2022-10-20T04:37:25.669Z,11.40
2022-10-20T04:39:53.223Z,11.50
2022-10-20T04:42:20.771Z,11.50
2022-10-20T04:44:48.678Z,11.50
2022-10-20T04:47:16.183Z,11.60
2022-10-20T04:49:43.738Z,11.60
2022-10-20T04:52:11.410Z,11.60
2022-10-20T04:54:38.964Z,11.60
2022-10-20T04:57:06.528Z,11.60
2022-10-20T04:59:35.010Z,11.60
2022-10-20T05:02:02.625Z,11.60
2022-10-20T05:04:30.842Z,11.60
2022-10-20T05:06:58.416Z,11.60
2022-10-20T05:09:25.971Z,11.60
2022-10-20T05:11:53.516Z,11.50
2022-10-20T05:14:21.368Z,11.50
2022-10-20T05:16:49.668Z,11.50
2022-10-20T05:19:17.206Z,11.50
2022-10-20T05:21:44.807Z,11.50
2022-10-20T05:24:13.553Z,11.50
2022-10-20T05:26:39.879Z,11.50
2022-10-20T05:29:07.464Z,11.50
2022-10-20T05:31:41.134Z,11.60
2022-10-20T05:34:09.445Z,11.60
2022-10-20T05:36:37.029Z,11.60
2022-10-20T05:39:04.574Z,11.60
2022-10-20T05:41:34.844Z,11.60
2022-10-20T05:43:59.693Z,11.60
2022-10-20T05:46:27.228Z,11.60
2022-10-20T05:48:54.773Z,11.60
2022-10-20T05:51:22.357Z,11.60
2022-10-20T05:53:49.912Z,11.60
2022-10-20T05:56:17.465Z,11.50
2022-10-20T05:58:45.078Z,11.50
2022-10-20T06:01:12.632Z,11.50
2022-10-20T06:03:40.188Z,11.50
2022-10-20T06:06:07.771Z,11.50
2022-10-20T06:08:36.089Z,11.70
2022-10-20T06:11:03.648Z,11.70
2022-10-20T06:13:31.951Z,11.70
2022-10-20T06:16:05.177Z,11.60
2022-10-20T06:18:33.470Z,12.10
2022-10-20T06:21:03.731Z,12.10
2022-10-20T06:23:31.267Z,12.00
2022-10-20T06:26:01.676Z,12.00
2022-10-20T06:28:30.501Z,11.90
2022-10-20T06:30:56.815Z,11.90
2022-10-20T06:33:24.369Z,11.90
2022-10-20T06:35:51.944Z,11.90
2022-10-20T06:38:19.468Z,11.90
2022-10-20T06:40:47.771Z,12.00
2022-10-20T06:43:15.335Z,11.90
2022-10-20T06:45:42.863Z,12.00
2022-10-20T06:48:11.193Z,12.00
2022-10-20T06:50:38.780Z,12.00
2022-10-20T06:53:06.321Z,12.00
2022-10-20T06:55:33.865Z,12.00
2022-10-20T06:58:01.489Z,12.20
2022-10-20T07:02:57.328Z,12.40
2022-10-20T07:05:24.920Z,12.40
2022-10-20T07:07:55.528Z,12.40
2022-10-20T07:10:23.052Z,12.40
2022-10-20T07:12:51.413Z,12.50
2022-10-20T07:15:18.958Z,12.50
2022-10-20T07:17:46.512Z,12.50
2022-10-20T07:20:14.088Z,12.80
2022-10-20T07:22:41.659Z,13.10
2022-10-20T07:25:09.187Z,13.10
2022-10-20T07:27:36.770Z,13.20
2022-10-20T07:30:04.305Z,13.20
2022-10-20T07:32:31.859Z,13.10
2022-10-20T07:34:59.433Z,13.00
2022-10-20T07:37:27.007Z,13.00
2022-10-20T07:39:54.542Z,12.90
2022-10-20T07:42:22.127Z,12.90
2022-10-20T07:44:49.631Z,12.90
2022-10-20T07:47:17.176Z,12.90
2022-10-20T07:49:45.244Z,13.00
2022-10-20T07:52:12.284Z,13.00
2022-10-20T07:54:40.587Z,13.00
2022-10-20T07:57:08.177Z,13.00
2022-10-20T07:59:35.728Z,13.10
2022-10-20T08:02:03.298Z,13.10
2022-10-20T08:04:30.815Z,13.10
2022-10-20T08:06:58.361Z,13.20
2022-10-20T08:09:25.914Z,13.30
2022-10-20T08:11:55.645Z,13.40
2022-10-20T08:14:21.811Z,13.30
2022-10-20T08:16:52.801Z,13.40
2022-10-20T08:22:23.782Z,14.10
2022-10-20T08:24:51.385Z,14.10
2022-10-20T08:27:18.939Z,14.10
2022-10-20T08:29:54.891Z,14.00
2022-10-20T08:32:14.057Z,14.00
2022-10-20T08:34:41.601Z,13.90
2022-10-20T08:37:09.191Z,13.90
2022-10-20T08:39:36.731Z,14.10
2022-10-20T08:42:08.610Z,14.20
2022-10-20T08:44:31.780Z,14.10
2022-10-20T08:47:03.342Z,14.10
2022-10-20T08:49:31.645Z,14.10
2022-10-20T08:51:59.181Z,14.10
2022-10-20T08:54:26.764Z,14.10
2022-10-20T08:56:54.290Z,14.10
2022-10-20T08:59:35.194Z,14.20
2022-10-20T09:02:03.281Z,14.20
2022-10-20T09:04:33.514Z,14.20
2022-10-20T09:07:01.018Z,14.30
2022-10-20T09:09:29.321Z,14.30
2022-10-20T09:11:56.865Z,14.30
2022-10-20T09:14:24.470Z,14.30
2022-10-20T09:17:00.703Z,14.40
2022-10-20T09:19:19.539Z,14.40
2022-10-20T09:21:47.113Z,14.40
2022-10-20T09:24:14.677Z,14.50
2022-10-20T09:27:03.448Z,14.50
2022-10-20T09:29:19.535Z,14.50
2022-10-20T09:31:49.509Z,14.50
2022-10-20T09:34:32.247Z,14.60
2022-10-20T09:37:05.534Z,14.60
2022-10-20T09:39:33.079Z,14.60
2022-10-20T09:44:28.955Z,14.60
2022-10-20T09:46:56.489Z,14.60
2022-10-20T09:49:24.099Z,14.80
2022-10-20T09:54:19.184Z,14.80
2022-10-20T09:56:46.775Z,14.80
2022-10-20T09:59:23.250Z,14.80
2022-10-20T10:01:53.504Z,15.00
2022-10-20T10:04:36.141Z,15.00
2022-10-20T10:07:03.748Z,15.20
2022-10-20T10:09:33.753Z,15.20
2022-10-20T10:12:13.053Z,15.10
2022-10-20T10:14:52.552Z,15.20
2022-10-20T10:17:32.658Z,15.00
2022-10-20T10:20:00.188Z,15.00
2022-10-20T10:22:27.739Z,15.00
2022-10-20T10:24:56.080Z,14.90
2022-10-20T10:27:23.636Z,14.90
2022-10-20T10:29:51.159Z,14.90
2022-10-20T10:32:18.754Z,14.90
2022-10-20T10:35:23.105Z,14.90
2022-10-20T10:37:51.454Z,15.20
2022-10-20T10:40:18.989Z,15.10
2022-10-20T10:43:07.566Z,15.20
2022-10-20T10:45:35.116Z,15.40
2022-10-20T10:48:05.421Z,15.30
2022-10-20T10:50:44.684Z,15.60
2022-10-20T10:53:27.508Z,15.50
2022-10-20T10:56:04.132Z,15.50
2022-10-20T10:58:44.427Z,15.60
2022-10-20T11:01:26.987Z,15.60
2022-10-20T11:03:54.532Z,15.60
2022-10-20T11:06:31.735Z,15.80
2022-10-20T11:09:23.521Z,15.70
2022-10-20T11:12:03.599Z,15.70
2022-10-20T11:14:31.206Z,15.70
2022-10-20T11:16:58.727Z,15.70
2022-10-20T11:19:38.639Z,15.70
2022-10-20T11:22:17.841Z,15.70
2022-10-20T11:25:12.751Z,15.70
2022-10-20T11:27:41.150Z,15.80
2022-10-20T11:30:14.582Z,15.90
2022-10-20T11:32:42.222Z,16.00
2022-10-20T11:35:21.694Z,16.00
2022-10-20T11:37:51.946Z,16.10
2022-10-20T11:40:22.237Z,16.20
2022-10-20T11:43:01.883Z,16.30
2022-10-20T11:45:29.429Z,16.40
2022-10-20T11:47:59.632Z,16.50
2022-10-20T11:50:28.034Z,16.70
2022-10-20T11:53:13.500Z,16.70
2022-10-20T11:55:49.994Z,16.70
2022-10-20T11:58:32.278Z,16.80
2022-10-20T12:01:21.014Z,16.90
2022-10-20T12:04:07.472Z,17.10
2022-10-20T12:06:40.312Z,17.10
2022-10-20T12:09:13.687Z,17.20
2022-10-20T12:11:56.007Z,17.20
2022-10-20T12:14:29.725Z,17.50
2022-10-20T12:17:06.093Z,17.50
2022-10-20T12:19:33.632Z,17.50
2022-10-20T12:22:17.069Z,17.50
2022-10-20T12:24:50.507Z,17.50
2022-10-20T12:27:18.046Z,17.60
2022-10-20T12:29:45.636Z,17.60
2022-10-20T12:32:22.451Z,17.60
2022-10-20T12:34:56.239Z,17.60
2022-10-20T12:37:35.711Z,17.60
2022-10-20T12:40:09.379Z,17.80
2022-10-20T12:42:39.492Z,17.80
2022-10-20T12:45:07.015Z,17.70
2022-10-20T12:47:34.963Z,17.70
2022-10-20T12:50:08.165Z,17.70
2022-10-20T12:52:35.702Z,17.70
2022-10-20T12:55:08.765Z,17.70
2022-10-20T12:57:36.814Z,17.60
2022-10-20T13:00:07.319Z,17.60
2022-10-20T13:02:43.835Z,17.80
2022-10-20T13:05:14.062Z,17.80
2022-10-20T13:07:50.223Z,17.80
2022-10-20T13:10:27.603Z,17.80
2022-10-20T13:12:55.175Z,17.70
2022-10-20T13:15:23.497Z,17.70
2022-10-20T13:17:53.515Z,17.70
2022-10-20T13:20:36.475Z,17.70
2022-10-20T13:23:04.016Z,17.70
2022-10-20T13:25:40.284Z,17.80
2022-10-20T13:28:13.452Z,17.80
2022-10-20T13:30:53.110Z,17.70
2022-10-20T13:34:05.915Z,17.70
2022-10-20T13:36:27.998Z,17.70
2022-10-20T13:39:20.972Z,17.80
2022-10-20T13:41:54.003Z,17.70
2022-10-20T13:44:31.320Z,17.80
2022-10-20T13:46:57.930Z,17.80
2022-10-20T13:49:31.251Z,17.80
2022-10-20T13:51:58.786Z,17.90
2022-10-20T13:54:28.773Z,17.90
2022-10-20T13:56:56.357Z,17.90
2022-10-20T13:59:26.618Z,18.00
2022-10-20T14:02:00.748Z,18.00
2022-10-20T14:04:29.064Z,18.00
2022-10-20T14:06:56.588Z,18.00
2022-10-20T14:09:24.197Z,18.00
2022-10-20T14:12:13.362Z,18.10
2022-10-20T14:14:43.380Z,18.10
2022-10-20T14:17:10.934Z,18.10
2022-10-20T14:19:39.078Z,18.30
2022-10-20T14:22:11.792Z,18.30
2022-10-20T14:24:39.314Z,18.30
2022-10-20T14:27:06.855Z,18.30
2022-10-20T14:29:35.196Z,18.50
2022-10-20T14:32:02.743Z,18.50
2022-10-20T14:36:24.827Z,18.50
2022-10-20T14:38:52.340Z,18.50
2022-10-20T14:41:28.509Z,18.40
2022-10-20T14:44:05.136Z,18.40
2022-10-20T14:46:29.142Z,18.60
2022-10-20T14:48:56.690Z,18.80
2022-10-20T14:51:30.290Z,18.70
2022-10-20T14:54:22.717Z,18.90
2022-10-20T14:56:56.032Z,18.80
2022-10-20T14:59:23.565Z,18.70
2022-10-20T15:01:57.047Z,18.60
2022-10-20T15:04:25.399Z,18.50
2022-10-20T15:07:04.654Z,18.50
2022-10-20T15:09:42.384Z,18.60
2022-10-20T15:12:18.699Z,18.60
2022-10-20T15:14:49.132Z,18.60
2022-10-20T15:17:44.845Z,18.50
2022-10-20T15:20:30.963Z,18.40
2022-10-20T15:22:59.280Z,18.60
2022-10-20T15:25:26.812Z,18.60
2022-10-20T15:27:54.367Z,18.60
2022-10-20T15:30:21.897Z,18.50
2022-10-20T15:32:50.199Z,18.50
2022-10-20T15:35:17.817Z,18.50
2022-10-20T15:37:45.344Z,18.40
2022-10-20T15:40:12.884Z,18.40
2022-10-20T15:42:40.464Z,18.40
2022-10-20T15:45:13.690Z,18.30
2022-10-20T15:47:41.225Z,18.30
2022-10-20T15:50:08.838Z,18.30
2022-10-20T15:52:36.612Z,18.50
2022-10-20T15:55:09.594Z,18.50
2022-10-20T15:57:37.364Z,18.40
2022-10-20T16:00:04.763Z,18.50
2022-10-20T16:02:32.298Z,18.50
2022-10-20T16:04:59.862Z,18.40
2022-10-20T16:07:27.507Z,18.30
2022-10-20T16:09:55.044Z,18.30
2022-10-20T16:12:23.382Z,18.10
2022-10-20T16:14:50.926Z,18.10
2022-10-20T16:17:18.459Z,18.10
2022-10-20T16:19:46.040Z,18.00
2022-10-20T16:22:13.564Z,18.00
2022-10-20T16:24:41.102Z,17.90
2022-10-20T16:27:09.433Z,17.80
2022-10-20T16:29:36.967Z,17.80
2022-10-20T16:32:04.496Z,18.00
2022-10-20T16:34:32.849Z,17.90
2022-10-20T16:37:00.374Z,17.90
2022-10-20T16:39:27.898Z,17.90
2022-10-20T16:41:56.826Z,17.80
2022-10-20T16:44:24.386Z,17.80
2022-10-20T16:46:51.885Z,17.70
2022-10-20T16:49:19.449Z,17.70
2022-10-20T16:51:46.987Z,17.60
2022-10-20T16:54:14.521Z,17.60
2022-10-20T16:56:42.086Z,17.70
2022-10-20T16:59:09.631Z,17.90
2022-10-20T17:01:37.165Z,17.80
2022-10-20T17:04:05.501Z,17.60
2022-10-20T17:06:33.022Z,17.60
2022-10-20T17:09:00.625Z,17.50
2022-10-20T17:11:28.896Z,17.50
2022-10-20T17:13:56.429Z,17.50
2022-10-20T17:16:27.605Z,17.40
2022-10-20T17:18:51.563Z,17.40
2022-10-20T17:21:19.100Z,17.40
2022-10-20T17:23:46.645Z,17.30
2022-10-20T17:26:14.212Z,17.30
2022-10-20T17:28:41.743Z,17.30
2022-10-20T17:31:10.104Z,17.30
2022-10-20T17:33:37.619Z,17.30
2022-10-20T17:36:05.222Z,17.40
2022-10-20T17:38:32.767Z,17.40
2022-10-20T17:41:06.248Z,17.40
2022-10-20T17:43:33.796Z,17.70
2022-10-20T17:46:01.323Z,17.70
2022-10-20T17:48:28.905Z,17.60
2022-10-20T17:50:59.423Z,17.60
2022-10-20T17:53:27.011Z,17.60
2022-10-20T17:55:54.566Z,17.60
2022-10-20T17:58:22.089Z,17.50
2022-10-20T18:00:56.708Z,17.50
2022-10-20T18:03:18.004Z,17.50
2022-10-20T18:05:45.538Z,17.50
2022-10-20T18:08:13.062Z,17.50
2022-10-20T18:10:43.941Z,17.50
2022-10-20T18:13:10.886Z,17.50
2022-10-20T18:15:44.417Z,17.50
2022-10-20T18:18:12.758Z,17.50
2022-10-20T18:20:40.291Z,17.50
2022-10-20T18:23:09.048Z,17.50
2022-10-20T18:25:36.622Z,17.50
2022-10-20T18:28:04.201Z,17.50
2022-10-20T18:30:32.457Z,17.40
2022-10-20T18:33:00.024Z,17.40
2022-10-20T18:35:27.551Z,17.40
2022-10-20T18:37:55.899Z,17.50
2022-10-20T18:40:23.467Z,17.50
2022-10-20T18:42:51.049Z,17.50
2022-10-20T18:45:21.411Z,17.50
2022-10-20T18:47:48.041Z,17.50
2022-10-20T18:50:15.570Z,17.50
2022-10-20T18:52:43.875Z,17.50
2022-10-20T18:55:11.444Z,17.50
2022-10-20T18:57:39.608Z,17.40
2022-10-20T19:00:07.630Z,17.40
2022-10-20T19:02:35.387Z,17.40
2022-10-20T19:05:02.922Z,17.60
2022-10-20T19:07:30.473Z,17.60
2022-10-20T19:09:59.074Z,17.60
2022-10-20T19:12:26.612Z,17.50
2022-10-20T19:14:54.175Z,17.50
2022-10-20T19:17:21.739Z,17.40
2022-10-20T19:19:49.276Z,17.40
2022-10-20T19:22:16.814Z,17.40
2022-10-20T19:24:45.162Z,17.40
2022-10-20T19:27:28.031Z,17.30
2022-10-20T19:29:40.221Z,17.30
2022-10-20T19:32:07.795Z,17.50
2022-10-20T19:34:35.350Z,17.50
2022-10-20T19:37:02.895Z,17.40
2022-10-20T19:39:33.192Z,17.30
2022-10-20T19:42:00.729Z,17.30
2022-10-20T19:44:28.374Z,17.30
2022-10-20T19:46:55.851Z,17.50
2022-10-20T19:49:23.381Z,17.70
2022-10-20T19:51:50.925Z,17.60
2022-10-20T19:54:18.490Z,17.80
2022-10-20T19:56:46.024Z,17.70
2022-10-20T19:59:13.557Z,17.50
2022-10-20T20:01:41.152Z,17.50
2022-10-20T20:04:08.706Z,17.40
2022-10-20T20:06:36.206Z,17.30
2022-10-20T20:09:04.474Z,17.30
2022-10-20T20:11:31.882Z,17.20
2022-10-20T20:14:02.922Z,17.40
2022-10-20T20:16:31.299Z,17.30
2022-10-20T20:18:58.803Z,17.30
2022-10-20T20:21:26.320Z,17.20
2022-10-20T20:23:59.889Z,17.20
2022-10-20T20:26:24.890Z,17.10
2022-10-20T20:28:52.435Z,17.20
2022-10-20T20:31:20.009Z,17.10
2022-10-20T20:33:47.563Z,17.30
2022-10-20T20:36:15.177Z,17.50
2022-10-20T20:38:42.798Z,17.50
2022-10-20T20:41:13.024Z,17.60
2022-10-20T20:43:42.958Z,17.50
2022-10-20T20:46:10.552Z,17.40
2022-10-20T20:48:38.116Z,17.30
2022-10-20T20:51:05.638Z,17.20
2022-10-20T20:56:00.740Z,17.10
2022-10-20T20:58:28.268Z,17.00
2022-10-20T21:01:02.089Z,17.00
2022-10-20T21:03:29.561Z,17.00
2022-10-20T21:05:57.876Z,17.10
2022-10-20T21:08:25.454Z,17.10
2022-10-20T21:10:52.990Z,17.10
2022-10-20T21:13:20.514Z,17.00
2022-10-20T21:15:48.865Z,16.90
2022-10-20T21:18:16.383Z,16.90
2022-10-20T21:20:43.908Z,16.80
2022-10-20T21:23:13.136Z,17.00
2022-10-20T21:25:40.671Z,17.00
2022-10-20T21:28:08.981Z,16.80
2022-10-20T21:30:36.566Z,16.80
2022-10-20T21:33:04.090Z,16.80
2022-10-20T21:35:31.636Z,16.70
2022-10-20T21:38:00.005Z,16.80
2022-10-20T21:40:28.299Z,16.70
2022-10-20T21:42:55.834Z,16.70
2022-10-20T21:45:24.456Z,16.50
2022-10-20T21:47:51.995Z,16.50
2022-10-20T21:50:19.538Z,16.40
2022-10-20T21:52:50.667Z,16.30
2022-10-20T21:55:18.222Z,16.30
2022-10-20T21:57:45.785Z,16.20
2022-10-20T22:00:13.364Z,16.40
2022-10-20T22:02:41.666Z,16.30
2022-10-20T22:05:09.200Z,16.30
2022-10-20T22:07:37.887Z,16.10
2022-10-20T22:10:05.116Z,16.10
2022-10-20T22:12:32.698Z,16.10
2022-10-20T22:15:00.235Z,16.30
2022-10-20T22:17:27.785Z,16.30
2022-10-20T22:19:55.320Z,16.20
2022-10-20T22:22:22.905Z,16.10
2022-10-20T22:24:50.438Z,16.30
2022-10-20T22:27:31.383Z,16.20
2022-10-20T22:29:45.539Z,16.10
2022-10-20T22:32:13.073Z,16.00
2022-10-20T22:34:40.597Z,16.00
2022-10-20T22:37:08.193Z,15.90
2022-10-20T22:39:36.498Z,16.00
2022-10-20T22:42:04.037Z,16.00
2022-10-20T22:44:31.610Z,16.00
2022-10-20T22:46:59.135Z,15.90
2022-10-20T22:49:27.429Z,15.80
2022-10-20T22:51:54.999Z,15.80
2022-10-20T22:54:22.525Z,15.80
2022-10-20T22:56:50.826Z,15.70
2022-10-20T22:59:18.411Z,15.70
2022-10-20T23:01:45.934Z,15.70
2022-10-20T23:04:13.459Z,15.60
2022-10-20T23:06:41.036Z,15.60
2022-10-20T23:09:08.602Z,15.60
2022-10-20T23:11:36.082Z,15.60
2022-10-20T23:14:03.959Z,15.60
2022-10-20T23:16:31.504Z,15.60
2022-10-20T23:18:59.040Z,15.60
2022-10-20T23:21:27.372Z,15.50
2022-10-20T23:23:54.906Z,15.50
2022-10-20T23:26:22.451Z,15.50
2022-10-20T23:28:50.035Z,15.50
2022-10-20T23:31:17.558Z,15.40
2022-10-20T23:33:45.875Z,15.40
2022-10-20T23:36:13.843Z,15.40
2022-10-20T23:38:41.369Z,15.40
2022-10-20T23:41:08.895Z,15.40
2022-10-20T23:46:04.767Z,15.50
2022-10-20T23:48:32.312Z,15.50
2022-10-20T23:51:01.875Z,15.70
2022-10-20T23:53:29.421Z,15.70
2022-10-20T23:55:56.967Z,15.70
2022-10-20T23:58:24.534Z,15.50
